Lunamar — 5BNV2 — position and weather

sailwx.info

Track history (hours):
 
Tides and Currents Weather Stations Pressure Air Temp Water Temp Dewpoint Dewpoint Depression Visibility Wind Speed Wind Dir Waves Ship Positions

Lunamar

Last reported at 2015-May-05 13:26 UTC. Time now 2015-May-05 14:17 UTC.
Position N 53°36' E 000°25'.

Length 90 m; draft 4.2 m.

Type: Cargo ship. MMSI: 212762000.

Date/timePositionNaut miles runAvg speedWind from/ knotsBaromVisibWave heightAir tempDewpointWater temp
2015-May-05 13:26N 53°36' E 000°25'0 0.0
2015-May-05 12:32N 53°36' E 000°25'0 0.0
2015-May-05 11:26N 53°36' E 000°25'0 0.0
2015-May-05 10:23N 53°36' E 000°25'0 0.0
2015-May-05 09:29N 53°36' E 000°25'0 0.0
2015-May-05 08:29N 53°36' E 000°25'0 0.1
2015-May-05 06:33N 53°36' E 000°25'9 9.1
2015-May-05 05:33N 53°43' E 000°35'1110.2
2015-May-05 04:30N 53°50' E 000°49'41010.5
2015-May-03 13:14N 57°47' E 010°45'710.1
2015-May-03 12:33N 57°42' E 010°37'1 0.6
2015-May-03 11:32N 57°41' E 010°36'6 2.6
2015-May-03 09:23N 57°39' E 010°45'911.2
2015-May-03 08:33N 57°35' E 011°00'1211.6
2015-May-03 07:33N 57°29' E 011°20'1010.5
2015-May-03 06:33N 57°21' E 011°31'1111.3
2015-May-03 05:33N 57°10' E 011°38'1110.9
2015-May-03 04:33N 56°60' E 011°45'1110.7
2015-May-03 03:33N 56°50' E 011°52'1111.3
2015-May-03 02:33N 56°39' E 011°57'1110.9
2015-May-03 01:32N 56°28' E 012°02'1010.5
2015-May-03 00:33N 56°19' E 012°09'1010.6
2015-May-02 23:33N 56°11' E 012°23'1111.0
2015-May-02 22:33N 56°04' E 012°38'1110.9
2015-May-02 21:33N 55°54' E 012°45'1111.0
2015-May-02 20:33N 55°43' E 012°41'1111.0
2015-May-02 19:33N 55°32' E 012°43'1111.1
2015-May-02 18:33N 55°21' E 012°41'10 9.7
2015-May-02 17:33N 55°16' E 012°56'1110.6
2015-May-02 16:33N 55°15' E 013°14'1110.6
2015-May-02 15:32N 55°15' E 013°33'1110.9
2015-May-02 14:33N 55°14' E 013°52'1110.8
2015-May-02 13:33N 55°14' E 014°11'9 9.4
2015-May-02 12:33N 55°19' E 014°24'1010.3
2015-May-02 11:33N 55°27' E 014°36'1110.7
2015-May-02 10:33N 55°33' E 014°52'1210.3
2015-May-02 09:23N 55°39' E 015°11'  
Track history (hours):
 
Tides and Currents Weather Stations Pressure Air Temp Water Temp Dewpoint Dewpoint Depression Visibility Wind Speed Wind Dir Waves Ship Positions

Lunamar

Last reported at 2015-May-05 13:26 UTC. Time now 2015-May-05 14:17 UTC.
Position N 53°36' E 000°25'.

Length 90 m; draft 4.2 m.

Type: Cargo ship. MMSI: 212762000.

Date/timePositionNaut miles runAvg speedWind from/ knotsBaromVisibWave heightAir tempDewpointWater temp
2015-May-05 13:26N 53°36' E 000°25'0 0.0
2015-May-05 12:32N 53°36' E 000°25'0 0.0
2015-May-05 11:26N 53°36' E 000°25'0 0.0
2015-May-05 10:23N 53°36' E 000°25'0 0.0
2015-May-05 09:29N 53°36' E 000°25'0 0.0
2015-May-05 08:29N 53°36' E 000°25'0 0.1
2015-May-05 06:33N 53°36' E 000°25'9 9.1
2015-May-05 05:33N 53°43' E 000°35'1110.2
2015-May-05 04:30N 53°50' E 000°49'41010.5
2015-May-03 13:14N 57°47' E 010°45'710.1
2015-May-03 12:33N 57°42' E 010°37'1 0.6
2015-May-03 11:32N 57°41' E 010°36'6 2.6
2015-May-03 09:23N 57°39' E 010°45'911.2
2015-May-03 08:33N 57°35' E 011°00'1211.6
2015-May-03 07:33N 57°29' E 011°20'1010.5
2015-May-03 06:33N 57°21' E 011°31'1111.3
2015-May-03 05:33N 57°10' E 011°38'1110.9
2015-May-03 04:33N 56°60' E 011°45'1110.7
2015-May-03 03:33N 56°50' E 011°52'1111.3
2015-May-03 02:33N 56°39' E 011°57'1110.9
2015-May-03 01:32N 56°28' E 012°02'1010.5
2015-May-03 00:33N 56°19' E 012°09'1010.6
2015-May-02 23:33N 56°11' E 012°23'1111.0
2015-May-02 22:33N 56°04' E 012°38'1110.9
2015-May-02 21:33N 55°54' E 012°45'1111.0
2015-May-02 20:33N 55°43' E 012°41'1111.0
2015-May-02 19:33N 55°32' E 012°43'1111.1
2015-May-02 18:33N 55°21' E 012°41'10 9.7
2015-May-02 17:33N 55°16' E 012°56'1110.6
2015-May-02 16:33N 55°15' E 013°14'1110.6
2015-May-02 15:32N 55°15' E 013°33'1110.9
2015-May-02 14:33N 55°14' E 013°52'1110.8
2015-May-02 13:33N 55°14' E 014°11'9 9.4
2015-May-02 12:33N 55°19' E 014°24'1010.3
2015-May-02 11:33N 55°27' E 014°36'1110.7
2015-May-02 10:33N 55°33' E 014°52'1210.3
2015-May-02 09:23N 55°39' E 015°11'  

Dump ship's entire track history